Time;durP1;ratioP1;P1;durP2;ratioP2;P2;SDS_P1;SDS_P2;PMS_P1;PMS_P2;Temp;Humidity;BMP_temperature;BMP_pressure;BME280_temperature;BME280_humidity;BME280_pressure;Samples;Min_cycle;Max_cycle;Signal;HPM_P1;HPM_P2
2022/06/25 00:01:30;0.00;0.00;0.62;0.00;0.00;0.62;3.13;2.83;;;31.50;32.00;;;;;;2255430;61;20405;-55
2022/06/25 00:07:20;0.00;0.00;0.62;0.00;0.00;0.62;3.43;3.10;;;31.50;32.00;;;;;;2255747;61;20381;-56
2022/06/25 00:10:07;0.00;0.00;0.62;0.00;0.00;0.62;3.20;2.90;;;31.50;31.90;;;;;;2254833;61;20916;-53
2022/06/25 00:12:52;0.00;0.00;0.62;0.00;0.00;0.62;3.60;3.30;;;31.50;31.90;;;;;;2255470;61;20370;-54
2022/06/25 00:15:36;0.00;0.00;0.62;0.00;0.00;0.62;4.13;3.20;;;31.50;31.90;;;;;;2255321;61;20366;-56
2022/06/25 00:18:22;0.00;0.00;0.62;0.00;0.00;0.62;3.90;3.60;;;31.50;31.90;;;;;;2255282;61;20482;-55
2022/06/25 00:21:07;0.00;0.00;0.62;0.00;0.00;0.62;3.20;2.90;;;31.50;31.90;;;;;;2254903;61;20894;-57
2022/06/25 00:23:54;0.00;0.00;0.62;0.00;0.00;0.62;3.50;3.20;;;31.50;31.80;;;;;;2255190;61;20378;-58
2022/06/25 00:26:38;0.00;0.00;0.62;0.00;0.00;0.62;3.10;2.80;;;31.50;31.80;;;;;;2254920;61;20408;-55
2022/06/25 00:29:24;0.00;0.00;0.62;0.00;0.00;0.62;4.60;3.40;;;31.50;31.80;;;;;;2252369;61;20357;-57
2022/06/25 00:32:09;0.00;0.00;0.62;0.00;0.00;0.62;3.40;3.10;;;31.50;31.80;;;;;;2254926;61;20362;-56
2022/06/25 00:34:55;0.00;0.00;0.62;0.00;0.00;0.62;3.50;3.20;;;31.50;31.80;;;;;;2252120;61;20401;-53
2022/06/25 00:37:40;0.00;0.00;0.62;0.00;0.00;0.62;3.67;3.37;;;31.50;31.80;;;;;;2253103;61;20557;-54
2022/06/25 00:40:27;0.00;0.00;0.62;0.00;0.00;0.62;3.90;3.50;;;31.50;31.70;;;;;;2252699;61;20385;-53
2022/06/25 00:43:12;0.00;0.00;0.62;0.00;0.00;0.62;3.50;3.20;;;31.50;31.70;;;;;;2255826;61;20397;-57
2022/06/25 00:45:57;0.00;0.00;0.62;0.00;0.00;0.62;3.57;3.23;;;31.50;31.70;;;;;;2255511;61;20369;-57
2022/06/25 00:48:42;0.00;0.00;0.62;0.00;0.00;0.62;3.13;2.80;;;31.50;31.70;;;;;;2251868;61;21003;-58
2022/06/25 00:51:31;0.00;0.00;0.62;0.00;0.00;0.62;4.10;3.00;;;31.50;31.70;;;;;;2249412;61;20921;-55
2022/06/25 00:54:19;0.00;0.00;0.62;0.00;0.00;0.62;3.27;2.93;;;31.50;31.70;;;;;;2251279;61;20771;-56
2022/06/25 00:57:12;0.00;0.00;0.62;0.00;0.00;0.62;2.90;2.70;;;31.50;31.60;;;;;;2252028;61;20382;-57
2022/06/25 01:00:03;0.00;0.00;0.62;0.00;0.00;0.62;2.80;2.60;;;31.50;31.60;;;;;;2252209;61;20922;-57
2022/06/25 01:02:48;0.00;0.00;0.62;0.00;0.00;0.62;3.33;3.03;;;31.50;31.60;;;;;;2251932;61;20414;-58
2022/06/25 01:05:33;0.00;0.00;0.62;0.00;0.00;0.62;3.47;3.17;;;31.50;31.60;;;;;;2251958;61;20398;-58
2022/06/25 01:08:19;0.00;0.00;0.62;0.00;0.00;0.62;3.60;3.30;;;31.50;31.60;;;;;;2255947;61;20462;-57
2022/06/25 01:11:03;0.00;0.00;0.62;0.00;0.00;0.62;2.70;2.50;;;31.50;31.60;;;;;;2255392;61;20882;-59
2022/06/25 01:13:50;0.00;0.00;0.62;0.00;0.00;0.62;3.83;3.13;;;31.50;31.70;;;;;;2255999;61;20378;-60
2022/06/25 01:16:36;0.00;0.00;0.62;0.00;0.00;0.62;4.87;3.40;;;31.50;31.60;;;;;;2251567;61;20374;-57
2022/06/25 01:19:21;0.00;0.00;0.62;0.00;0.00;0.62;3.70;3.40;;;31.50;31.70;;;;;;2248929;61;20366;-58
2022/06/25 01:22:08;0.00;0.00;0.62;0.00;0.00;0.62;3.07;2.53;;;31.50;31.70;;;;;;2252345;61;20362;-58
2022/06/25 01:24:53;0.00;0.00;0.62;0.00;0.00;0.62;3.30;3.00;;;31.50;31.80;;;;;;2245827;61;20370;-58
2022/06/25 01:27:39;0.00;0.00;0.62;0.00;0.00;0.62;3.83;3.40;;;31.50;31.80;;;;;;2251871;61;20379;-57
2022/06/25 01:30:24;0.00;0.00;0.62;0.00;0.00;0.62;4.00;3.57;;;31.50;31.90;;;;;;2251997;61;20443;-57
2022/06/25 01:33:09;0.00;0.00;0.62;0.00;0.00;0.62;4.27;3.87;;;31.50;32.00;;;;;;2251240;61;20355;-58
2022/06/25 01:35:54;0.00;0.00;0.62;0.00;0.00;0.62;3.77;3.40;;;31.40;32.00;;;;;;2249306;61;20363;-59
2022/06/25 01:38:40;0.00;0.00;0.62;0.00;0.00;0.62;4.37;3.97;;;31.30;31.90;;;;;;2251289;61;20394;-58
2022/06/25 01:41:25;0.00;0.00;0.62;0.00;0.00;0.62;4.40;3.37;;;31.30;32.10;;;;;;2251557;61;20388;-59
2022/06/25 01:44:10;0.00;0.00;0.62;0.00;0.00;0.62;4.03;3.73;;;31.20;32.10;;;;;;2252109;61;20402;-57
2022/06/25 01:46:55;0.00;0.00;0.62;0.00;0.00;0.62;5.33;4.00;;;31.10;32.10;;;;;;2253671;61;20378;-59
2022/06/25 01:49:40;0.00;0.00;0.62;0.00;0.00;0.62;7.83;4.23;;;31.00;32.30;;;;;;2252714;61;20358;-57
2022/06/25 01:52:25;0.00;0.00;0.62;0.00;0.00;0.62;4.80;4.40;;;30.90;32.50;;;;;;2252975;61;20369;-58
2022/06/25 01:55:11;0.00;0.00;0.62;0.00;0.00;0.62;4.30;4.00;;;30.80;32.80;;;;;;2255811;61;20882;-58
2022/06/25 01:57:58;0.00;0.00;0.62;0.00;0.00;0.62;4.93;4.40;;;30.60;32.90;;;;;;2256039;61;20394;-58
2022/06/25 02:00:44;0.00;0.00;0.62;0.00;0.00;0.62;5.17;4.77;;;30.50;33.00;;;;;;2255208;61;20900;-53
2022/06/25 02:03:30;0.00;0.00;0.62;0.00;0.00;0.62;4.53;4.03;;;30.40;33.20;;;;;;2252351;61;20370;-57
2022/06/25 02:06:15;0.00;0.00;0.62;0.00;0.00;0.62;4.70;4.30;;;30.30;33.20;;;;;;2256299;61;20405;-56
2022/06/25 02:09:00;0.00;0.00;0.62;0.00;0.00;0.62;4.23;3.93;;;30.20;33.60;;;;;;2255521;61;20533;-55
2022/06/25 02:11:47;0.00;0.00;0.62;0.00;0.00;0.62;7.20;4.53;;;30.10;33.50;;;;;;2252575;61;20358;-51
2022/06/25 02:14:32;0.00;0.00;0.62;0.00;0.00;0.62;6.17;4.80;;;29.90;33.40;;;;;;2252375;61;20819;-55
2022/06/25 02:17:17;0.00;0.00;0.62;0.00;0.00;0.62;5.43;4.53;;;29.80;33.80;;;;;;2255521;61;20413;-52
2022/06/25 02:20:03;0.00;0.00;0.62;0.00;0.00;0.62;5.50;4.00;;;29.70;34.00;;;;;;2256083;61;20369;-54
2022/06/25 02:22:49;0.00;0.00;0.62;0.00;0.00;0.62;7.40;4.00;;;29.60;34.20;;;;;;2255517;61;20389;-54
2022/06/25 02:25:34;0.00;0.00;0.62;0.00;0.00;0.62;8.03;4.77;;;29.50;34.40;;;;;;2255699;61;20821;-51
2022/06/25 02:28:20;0.00;0.00;0.62;0.00;0.00;0.62;4.43;4.00;;;29.40;34.50;;;;;;2252584;61;20405;-51
2022/06/25 02:31:05;0.00;0.00;0.62;0.00;0.00;0.62;4.63;4.23;;;29.30;34.60;;;;;;2255284;61;20991;-56
2022/06/25 02:33:51;0.00;0.00;0.62;0.00;0.00;0.62;5.00;4.30;;;29.20;34.70;;;;;;2252292;61;20361;-53
2022/06/25 02:36:36;0.00;0.00;0.62;0.00;0.00;0.62;3.70;3.40;;;29.10;34.80;;;;;;2255059;61;20389;-52
2022/06/25 02:39:25;0.00;0.00;0.62;0.00;0.00;0.62;4.70;4.27;;;29.10;35.00;;;;;;2252331;61;20366;-56
2022/06/25 02:42:10;0.00;0.00;0.62;0.00;0.00;0.62;4.83;4.13;;;29.10;35.00;;;;;;2255751;61;20963;-51
2022/06/25 02:44:57;0.00;0.00;0.62;0.00;0.00;0.62;4.70;4.30;;;29.00;35.20;;;;;;2252028;61;20887;-51
2022/06/25 02:47:42;0.00;0.00;0.62;0.00;0.00;0.62;4.17;3.77;;;29.00;35.30;;;;;;2248818;61;20923;-51
2022/06/25 02:50:28;0.00;0.00;0.62;0.00;0.00;0.62;4.50;4.10;;;28.90;35.40;;;;;;2248687;61;20363;-51
2022/06/25 02:53:13;0.00;0.00;0.62;0.00;0.00;0.62;5.10;4.20;;;28.90;35.30;;;;;;2250520;61;20359;-53
2022/06/25 02:59:07;0.00;0.00;0.62;0.00;0.00;0.62;5.13;4.20;;;28.80;35.70;;;;;;2251308;61;20481;-53
2022/06/25 03:01:58;0.00;0.00;0.62;0.00;0.00;0.62;6.10;5.07;;;28.80;35.70;;;;;;2248260;61;20509;-58
2022/06/25 03:04:49;0.00;0.00;0.62;0.00;0.00;0.62;5.00;4.60;;;28.70;36.40;;;;;;2248435;61;20911;-52
2022/06/25 03:07:34;0.00;0.00;0.62;0.00;0.00;0.62;6.83;5.83;;;28.60;35.70;;;;;;2247940;61;20398;-54
2022/06/25 03:10:19;0.00;0.00;0.62;0.00;0.00;0.62;6.33;4.73;;;28.60;35.80;;;;;;2251550;61;20358;-53
2022/06/25 03:13:04;0.00;0.00;0.62;0.00;0.00;0.62;7.20;5.80;;;28.50;35.70;;;;;;2248573;61;20762;-56
2022/06/25 03:15:49;0.00;0.00;0.62;0.00;0.00;0.62;7.20;5.70;;;28.50;35.90;;;;;;2250646;61;20418;-51
2022/06/25 03:18:37;0.00;0.00;0.62;0.00;0.00;0.62;7.37;5.37;;;28.40;35.80;;;;;;2251234;61;20394;-55
2022/06/25 03:21:44;0.00;0.00;0.62;0.00;0.00;0.62;6.83;5.30;;;28.30;35.90;;;;;;2246971;61;20467;-51
2022/06/25 03:24:29;0.00;0.00;0.62;0.00;0.00;0.62;6.20;5.63;;;28.20;36.10;;;;;;2247728;61;20494;-55
2022/06/25 03:27:15;0.00;0.00;0.62;0.00;0.00;0.62;6.97;5.10;;;28.20;36.30;;;;;;2248751;61;20519;-51
2022/06/25 03:30:05;0.00;0.00;0.62;0.00;0.00;0.62;4.63;4.23;;;28.10;36.30;;;;;;2247854;61;20996;-56
2022/06/25 03:32:51;0.00;0.00;0.62;0.00;0.00;0.62;5.70;4.70;;;28.10;36.30;;;;;;2248077;61;20457;-52
2022/06/25 03:35:51;0.00;0.00;0.62;0.00;0.00;0.62;4.90;4.50;;;28.00;36.40;;;;;;2248259;61;20358;-51
2022/06/25 03:38:39;0.00;0.00;0.62;0.00;0.00;0.62;6.17;4.90;;;28.00;36.60;;;;;;2248240;61;20390;-53
2022/06/25 03:41:35;0.00;0.00;0.62;0.00;0.00;0.62;6.00;4.83;;;27.90;36.60;;;;;;2251571;61;20363;-52
2022/06/25 03:44:39;0.00;0.00;0.62;0.00;0.00;0.62;5.70;4.47;;;27.90;36.70;;;;;;2248195;61;20383;-53
2022/06/25 03:47:36;0.00;0.00;0.62;0.00;0.00;0.62;6.70;4.63;;;27.80;36.70;;;;;;2254146;61;20378;-54
2022/06/25 03:50:23;0.00;0.00;0.62;0.00;0.00;0.62;5.10;4.67;;;27.80;36.80;;;;;;2252197;61;20398;-51
2022/06/25 03:53:09;0.00;0.00;0.62;0.00;0.00;0.62;4.40;3.83;;;27.80;36.90;;;;;;2255311;61;20409;-53
2022/06/25 03:55:54;0.00;0.00;0.62;0.00;0.00;0.62;5.50;4.50;;;27.80;36.90;;;;;;2252207;61;20935;-52
2022/06/25 03:58:45;0.00;0.00;0.62;0.00;0.00;0.62;5.17;4.67;;;27.70;37.00;;;;;;2249418;61;20402;-55
2022/06/25 04:01:31;0.00;0.00;0.62;0.00;0.00;0.62;4.93;4.43;;;27.70;36.90;;;;;;2247953;61;20368;-51
2022/06/25 04:04:16;0.00;0.00;0.62;0.00;0.00;0.62;6.20;4.23;;;27.70;36.90;;;;;;2251082;61;20772;-53
2022/06/25 04:07:01;0.00;0.00;0.62;0.00;0.00;0.62;4.50;3.97;;;27.70;37.10;;;;;;2247713;61;20907;-51
2022/06/25 04:09:47;0.00;0.00;0.62;0.00;0.00;0.62;4.97;4.47;;;27.70;37.10;;;;;;2247853;61;20410;-54
2022/06/25 04:12:32;0.00;0.00;0.62;0.00;0.00;0.62;5.97;4.33;;;27.70;37.10;;;;;;2248768;61;20911;-55
2022/06/25 04:15:17;0.00;0.00;0.62;0.00;0.00;0.62;4.80;4.40;;;27.60;37.10;;;;;;2248549;61;20418;-52
2022/06/25 04:18:04;0.00;0.00;0.62;0.00;0.00;0.62;12.10;3.60;;;27.60;37.10;;;;;;2249177;61;20480;-57
2022/06/25 04:20:50;0.00;0.00;0.62;0.00;0.00;0.62;4.50;4.10;;;27.60;37.10;;;;;;2249222;61;20443;-56
2022/06/25 04:23:35;0.00;0.00;0.62;0.00;0.00;0.62;6.90;4.73;;;27.70;37.20;;;;;;2249030;61;20402;-56
2022/06/25 04:26:22;0.00;0.00;0.62;0.00;0.00;0.62;5.73;4.33;;;27.60;37.10;;;;;;2249391;61;20378;-56
2022/06/25 04:29:08;0.00;0.00;0.62;0.00;0.00;0.62;4.33;3.93;;;27.70;37.20;;;;;;2252224;61;20433;-56
2022/06/25 04:31:56;0.00;0.00;0.62;0.00;0.00;0.62;5.43;3.93;;;27.60;37.30;;;;;;2252492;61;20351;-56
2022/06/25 04:35:05;0.00;0.00;0.62;0.00;0.00;0.62;4.33;3.93;;;27.70;37.40;;;;;;2252033;61;20386;-55
2022/06/25 04:37:53;0.00;0.00;0.62;0.00;0.00;0.62;4.87;4.40;;;27.60;37.30;;;;;;2249099;61;20491;-54
2022/06/25 04:40:39;0.00;0.00;0.62;0.00;0.00;0.62;4.20;3.80;;;27.60;37.30;;;;;;2249371;61;20907;-57
2022/06/25 04:43:25;0.00;0.00;0.62;0.00;0.00;0.62;4.50;4.10;;;27.60;37.30;;;;;;2252371;61;20447;-57
2022/06/25 04:46:10;0.00;0.00;0.62;0.00;0.00;0.62;4.30;3.90;;;27.60;37.50;;;;;;2249253;61;20402;-56
2022/06/25 04:48:58;0.00;0.00;0.62;0.00;0.00;0.62;5.10;3.93;;;27.60;37.60;;;;;;2245358;61;20403;-58
2022/06/25 04:51:46;0.00;0.00;0.62;0.00;0.00;0.62;4.00;3.70;;;27.50;37.60;;;;;;2250968;61;20362;-55
2022/06/25 04:54:32;0.00;0.00;0.62;0.00;0.00;0.62;6.70;3.47;;;27.50;37.60;;;;;;2251439;61;20824;-54
2022/06/25 04:57:25;0.00;0.00;0.62;0.00;0.00;0.62;3.90;3.60;;;27.50;37.60;;;;;;2251371;61;20970;-55
2022/06/25 05:00:38;0.00;0.00;0.62;0.00;0.00;0.62;2.97;2.77;;;27.50;37.50;;;;;;2251293;61;20413;-58
2022/06/25 05:03:23;0.00;0.00;0.62;0.00;0.00;0.62;4.00;3.70;;;27.50;37.50;;;;;;2251676;61;20422;-54
2022/06/25 05:06:31;0.00;0.00;0.62;0.00;0.00;0.62;4.30;3.90;;;27.50;37.50;;;;;;2249068;61;20470;-55
2022/06/25 05:09:16;0.00;0.00;0.62;0.00;0.00;0.62;3.40;3.10;;;27.40;37.40;;;;;;2251862;61;20386;-51
2022/06/25 05:12:01;0.00;0.00;0.62;0.00;0.00;0.62;3.90;3.50;;;27.40;37.40;;;;;;2245976;61;20409;-57
2022/06/25 05:14:46;0.00;0.00;0.62;0.00;0.00;0.62;3.40;3.00;;;27.50;37.50;;;;;;2248615;61;20790;-58
2022/06/25 05:17:32;0.00;0.00;0.62;0.00;0.00;0.62;3.60;3.30;;;27.40;37.40;;;;;;2252425;61;20411;-60
2022/06/25 05:20:17;0.00;0.00;0.62;0.00;0.00;0.62;7.20;3.40;;;27.50;37.50;;;;;;2249239;61;20371;-59
2022/06/25 05:23:02;0.00;0.00;0.62;0.00;0.00;0.62;4.00;3.20;;;27.50;37.40;;;;;;2250653;61;20382;-57
2022/06/25 05:25:47;0.00;0.00;0.62;0.00;0.00;0.62;3.40;3.10;;;27.40;37.30;;;;;;2251914;61;20507;-57
2022/06/25 05:28:33;0.00;0.00;0.62;0.00;0.00;0.62;3.57;3.10;;;27.50;37.40;;;;;;2248349;61;20387;-59
2022/06/25 05:31:18;0.00;0.00;0.62;0.00;0.00;0.62;5.33;3.27;;;27.40;37.30;;;;;;2252053;61;20794;-58
2022/06/25 05:34:04;0.00;0.00;0.62;0.00;0.00;0.62;4.23;3.40;;;27.50;37.40;;;;;;2251057;61;20371;-61
2022/06/25 05:36:49;0.00;0.00;0.62;0.00;0.00;0.62;3.20;2.90;;;27.40;37.40;;;;;;2248900;61;20931;-59
2022/06/25 05:39:34;0.00;0.00;0.62;0.00;0.00;0.62;3.83;2.80;;;27.40;37.40;;;;;;2251515;61;20462;-56
2022/06/25 05:42:20;0.00;0.00;0.62;0.00;0.00;0.62;3.43;2.53;;;27.40;37.40;;;;;;2251895;61;20414;-58
2022/06/25 05:45:06;0.00;0.00;0.62;0.00;0.00;0.62;3.23;2.93;;;27.40;37.30;;;;;;2250183;61;20410;-59
2022/06/25 05:47:52;0.00;0.00;0.62;0.00;0.00;0.62;3.03;2.73;;;27.40;37.30;;;;;;2252270;61;20457;-60
2022/06/25 05:50:38;0.00;0.00;0.62;0.00;0.00;0.62;3.00;2.70;;;27.40;37.20;;;;;;2251287;61;20848;-58
2022/06/25 05:53:22;0.00;0.00;0.62;0.00;0.00;0.62;3.40;3.10;;;27.40;37.20;;;;;;2251720;61;20394;-58
2022/06/25 05:56:07;0.00;0.00;0.62;0.00;0.00;0.62;2.90;2.60;;;27.40;37.20;;;;;;2251791;61;20846;-59
2022/06/25 05:58:52;0.00;0.00;0.62;0.00;0.00;0.62;3.93;2.63;;;27.40;37.30;;;;;;2251692;61;20401;-59
2022/06/25 06:01:37;0.00;0.00;0.62;0.00;0.00;0.62;2.90;2.60;;;27.50;37.30;;;;;;2251989;61;21125;-57
2022/06/25 06:04:21;0.00;0.00;0.62;0.00;0.00;0.62;3.33;3.03;;;27.50;37.40;;;;;;2251606;61;20367;-57
2022/06/25 06:07:08;0.00;0.00;0.62;0.00;0.00;0.62;2.93;2.60;;;27.50;37.50;;;;;;2252023;61;20398;-58
2022/06/25 06:09:52;0.00;0.00;0.62;0.00;0.00;0.62;3.23;2.80;;;27.50;37.50;;;;;;2252394;61;20362;-58
2022/06/25 06:12:37;0.00;0.00;0.62;0.00;0.00;0.62;3.83;2.87;;;27.50;37.40;;;;;;2248054;61;20417;-57
2022/06/25 06:15:22;0.00;0.00;0.62;0.00;0.00;0.62;4.70;3.17;;;27.50;37.40;;;;;;2251462;61;20459;-58
2022/06/25 06:18:08;0.00;0.00;0.62;0.00;0.00;0.62;2.60;2.40;;;27.50;37.30;;;;;;2252142;61;20383;-59
2022/06/25 06:20:53;0.00;0.00;0.62;0.00;0.00;0.62;5.87;2.20;;;27.50;37.20;;;;;;2251761;61;20839;-58
2022/06/25 06:23:39;0.00;0.00;0.62;0.00;0.00;0.62;2.53;2.30;;;27.50;37.10;;;;;;2251352;61;20363;-58
2022/06/25 06:26:23;0.00;0.00;0.62;0.00;0.00;0.62;2.73;2.53;;;27.50;37.00;;;;;;2251847;61;20398;-58
2022/06/25 06:29:08;0.00;0.00;0.62;0.00;0.00;0.62;2.97;2.60;;;27.60;37.10;;;;;;2251308;61;20383;-58
2022/06/25 06:31:53;0.00;0.00;0.62;0.00;0.00;0.62;2.50;2.30;;;27.50;36.90;;;;;;2252157;61;20370;-58
2022/06/25 06:34:38;0.00;0.00;0.62;0.00;0.00;0.62;2.60;2.10;;;27.60;36.90;;;;;;2250760;61;20382;-59
2022/06/25 06:37:23;0.00;0.00;0.62;0.00;0.00;0.62;4.60;2.63;;;27.60;36.90;;;;;;2251545;61;20434;-58
2022/06/25 06:40:10;0.00;0.00;0.62;0.00;0.00;0.62;2.27;2.07;;;27.50;36.90;;;;;;2252184;61;20450;-59
2022/06/25 06:42:56;0.00;0.00;0.62;0.00;0.00;0.62;3.60;2.53;;;27.50;36.80;;;;;;2251587;61;20473;-58
2022/06/25 06:45:40;0.00;0.00;0.62;0.00;0.00;0.62;2.43;2.23;;;27.50;36.80;;;;;;2251574;61;20891;-58
2022/06/25 06:48:25;0.00;0.00;0.62;0.00;0.00;0.62;2.80;2.00;;;27.50;36.70;;;;;;2251605;61;21044;-56
2022/06/25 06:51:10;0.00;0.00;0.62;0.00;0.00;0.62;2.07;1.87;;;27.50;36.80;;;;;;2251353;61;20443;-59
2022/06/25 06:53:55;0.00;0.00;0.62;0.00;0.00;0.62;2.30;2.10;;;27.50;36.80;;;;;;2251906;61;20882;-56
2022/06/25 06:56:41;0.00;0.00;0.62;0.00;0.00;0.62;4.00;2.20;;;27.60;36.90;;;;;;2251616;61;21018;-58
2022/06/25 06:59:26;0.00;0.00;0.62;0.00;0.00;0.62;4.17;2.63;;;27.60;36.90;;;;;;2251539;61;20390;-59
2022/06/25 07:02:12;0.00;0.00;0.62;0.00;0.00;0.62;3.43;2.40;;;27.60;36.90;;;;;;2248815;61;20370;-57
2022/06/25 07:04:57;0.00;0.00;0.62;0.00;0.00;0.62;2.70;2.13;;;27.60;36.90;;;;;;2251054;61;20366;-59
2022/06/25 07:07:42;0.00;0.00;0.62;0.00;0.00;0.62;2.33;2.13;;;27.60;36.90;;;;;;2251531;61;20919;-58
2022/06/25 07:10:27;0.00;0.00;0.62;0.00;0.00;0.62;3.80;2.30;;;27.70;36.90;;;;;;2247568;61;20934;-59
2022/06/25 07:13:13;0.00;0.00;0.62;0.00;0.00;0.62;4.60;2.50;;;27.70;37.00;;;;;;2250964;61;20824;-58
2022/06/25 07:15:58;0.00;0.00;0.62;0.00;0.00;0.62;1.87;1.77;;;27.70;37.00;;;;;;2251752;61;20402;-58
2022/06/25 07:18:43;0.00;0.00;0.62;0.00;0.00;0.62;2.50;2.30;;;27.70;37.00;;;;;;2251171;61;20904;-58
2022/06/25 07:21:29;0.00;0.00;0.62;0.00;0.00;0.62;2.57;2.00;;;27.70;36.90;;;;;;2251812;61;20456;-59
2022/06/25 07:24:14;0.00;0.00;0.62;0.00;0.00;0.62;2.90;2.60;;;27.70;36.70;;;;;;2251455;61;20411;-58
2022/06/25 07:26:59;0.00;0.00;0.62;0.00;0.00;0.62;3.07;2.03;;;27.70;36.70;;;;;;2250776;61;20441;-59
2022/06/25 07:29:46;0.00;0.00;0.62;0.00;0.00;0.62;2.50;2.10;;;27.70;36.40;;;;;;2251514;61;20937;-58
2022/06/25 07:32:31;0.00;0.00;0.62;0.00;0.00;0.62;4.47;2.50;;;27.80;36.10;;;;;;2251277;61;20375;-58
2022/06/25 07:35:16;0.00;0.00;0.62;0.00;0.00;0.62;2.10;1.90;;;27.80;35.80;;;;;;2250011;61;20919;-59
2022/06/25 07:38:01;0.00;0.00;0.62;0.00;0.00;0.62;3.33;2.40;;;27.80;35.80;;;;;;2257350;61;20996;-57
2022/06/25 07:40:46;0.00;0.00;0.62;0.00;0.00;0.62;2.50;2.17;;;27.80;35.80;;;;;;2250607;61;20934;-58
2022/06/25 07:43:34;0.00;0.00;0.62;0.00;0.00;0.62;2.03;1.83;;;27.80;35.80;;;;;;2250731;61;20410;-54
2022/06/25 07:46:20;0.00;0.00;0.62;0.00;0.00;0.62;2.20;1.97;;;27.80;35.80;;;;;;2250984;61;20362;-54
2022/06/25 07:49:07;0.00;0.00;0.62;0.00;0.00;0.62;3.20;1.80;;;27.80;35.80;;;;;;2249954;61;20433;-55
2022/06/25 07:52:00;0.00;0.00;0.62;0.00;0.00;0.62;3.07;2.23;;;27.80;35.80;;;;;;2250975;61;20354;-56
2022/06/25 07:54:44;0.00;0.00;0.62;0.00;0.00;0.62;2.23;2.00;;;27.80;35.80;;;;;;2249777;61;20934;-57
2022/06/25 07:57:30;0.00;0.00;0.62;0.00;0.00;0.62;2.30;2.10;;;27.90;35.70;;;;;;2250946;61;20919;-58
2022/06/25 08:00:16;0.00;0.00;0.62;0.00;0.00;0.62;2.17;1.70;;;27.90;35.70;;;;;;2251601;61;20476;-59
2022/06/25 08:03:03;0.00;0.00;0.62;0.00;0.00;0.62;2.13;1.80;;;27.90;36.40;;;;;;2251147;61;20845;-57
2022/06/25 08:05:48;0.00;0.00;0.62;0.00;0.00;0.62;2.93;1.90;;;27.90;35.70;;;;;;2251360;61;20966;-57
2022/06/25 08:08:33;0.00;0.00;0.62;0.00;0.00;0.62;2.67;2.13;;;27.90;35.60;;;;;;2251345;61;20454;-59
2022/06/25 08:11:18;0.00;0.00;0.62;0.00;0.00;0.62;2.87;1.60;;;28.00;35.50;;;;;;2250700;61;20421;-58
2022/06/25 08:14:03;0.00;0.00;0.62;0.00;0.00;0.62;2.90;1.80;;;28.00;35.20;;;;;;2251169;61;20409;-58
2022/06/25 08:16:48;0.00;0.00;0.62;0.00;0.00;0.62;2.70;1.70;;;28.00;35.60;;;;;;2251165;61;20367;-59
2022/06/25 08:19:35;0.00;0.00;0.62;0.00;0.00;0.62;1.97;1.60;;;28.00;35.10;;;;;;2251085;61;20446;-57
2022/06/25 08:22:20;0.00;0.00;0.62;0.00;0.00;0.62;1.90;1.70;;;28.00;35.00;;;;;;2251394;61;20370;-59
2022/06/25 08:25:09;0.00;0.00;0.62;0.00;0.00;0.62;2.33;1.83;;;28.00;35.10;;;;;;2251062;61;20410;-58
2022/06/25 08:27:54;0.00;0.00;0.62;0.00;0.00;0.62;2.33;2.13;;;28.10;35.10;;;;;;2251187;61;20386;-59
2022/06/25 08:30:41;0.00;0.00;0.62;0.00;0.00;0.62;2.07;1.87;;;28.10;35.70;;;;;;2251279;61;20363;-60
2022/06/25 08:33:26;0.00;0.00;0.62;0.00;0.00;0.62;2.60;1.97;;;28.10;35.00;;;;;;2250540;61;20378;-58
2022/06/25 08:36:13;0.00;0.00;0.62;0.00;0.00;0.62;2.57;1.90;;;28.10;35.00;;;;;;2251392;61;20458;-57
2022/06/25 08:38:58;0.00;0.00;0.62;0.00;0.00;0.62;2.13;1.93;;;28.10;35.00;;;;;;2251090;61;20391;-59
2022/06/25 08:41:44;0.00;0.00;0.62;0.00;0.00;0.62;2.30;2.00;;;28.10;35.00;;;;;;2251009;61;20379;-58
2022/06/25 08:44:30;0.00;0.00;0.62;0.00;0.00;0.62;2.13;1.73;;;28.20;35.00;;;;;;2251289;61;20918;-59
2022/06/25 08:47:15;0.00;0.00;0.62;0.00;0.00;0.62;2.10;1.90;;;28.20;34.50;;;;;;2250952;61;20398;-59
2022/06/25 08:50:02;0.00;0.00;0.62;0.00;0.00;0.62;1.87;1.73;;;28.20;34.40;;;;;;2250935;61;20354;-55
2022/06/25 08:52:50;0.00;0.00;0.62;0.00;0.00;0.62;2.30;1.87;;;28.20;34.40;;;;;;2251401;61;20394;-58
2022/06/25 08:55:38;0.00;0.00;0.62;0.00;0.00;0.62;2.20;2.00;;;28.30;34.30;;;;;;2250610;61;20425;-57
2022/06/25 08:58:24;0.00;0.00;0.62;0.00;0.00;0.62;3.47;2.30;;;28.30;34.30;;;;;;2251806;61;20398;-58
2022/06/25 09:01:09;0.00;0.00;0.62;0.00;0.00;0.62;2.13;1.93;;;28.30;34.30;;;;;;2248573;61;20366;-59
2022/06/25 09:03:53;0.00;0.00;0.62;0.00;0.00;0.62;1.90;1.70;;;28.30;34.30;;;;;;2251348;61;20430;-59
2022/06/25 09:06:38;0.00;0.00;0.62;0.00;0.00;0.62;3.60;1.90;;;28.30;34.40;;;;;;2251609;61;20895;-58
2022/06/25 09:09:24;0.00;0.00;0.62;0.00;0.00;0.62;4.10;2.30;;;28.40;34.20;;;;;;2251663;61;20357;-58
2022/06/25 09:12:12;0.00;0.00;0.62;0.00;0.00;0.62;2.93;2.23;;;28.40;34.30;;;;;;2251643;61;20375;-57
2022/06/25 09:14:57;0.00;0.00;0.62;0.00;0.00;0.62;3.57;1.90;;;28.40;34.60;;;;;;2251900;61;20431;-57
2022/06/25 09:17:48;0.00;0.00;0.62;0.00;0.00;0.62;4.33;1.87;;;28.40;33.80;;;;;;2251258;61;21168;-59
2022/06/25 09:20:33;0.00;0.00;0.62;0.00;0.00;0.62;4.53;1.80;;;28.50;33.60;;;;;;2251971;61;20422;-57
2022/06/25 09:23:18;0.00;0.00;0.62;0.00;0.00;0.62;1.70;1.53;;;28.50;32.90;;;;;;2251523;61;20363;-58
2022/06/25 09:26:07;0.00;0.00;0.62;0.00;0.00;0.62;1.60;1.40;;;28.50;32.70;;;;;;2251362;61;20391;-58
2022/06/25 09:28:52;0.00;0.00;0.62;0.00;0.00;0.62;2.90;2.20;;;28.50;32.40;;;;;;2248891;61;20413;-55
2022/06/25 09:31:38;0.00;0.00;0.62;0.00;0.00;0.62;2.30;2.10;;;28.50;32.60;;;;;;2251646;61;20395;-58
2022/06/25 09:34:33;0.00;0.00;0.62;0.00;0.00;0.62;2.13;1.93;;;28.50;32.80;;;;;;2251351;61;20375;-58
2022/06/25 09:37:22;0.00;0.00;0.62;0.00;0.00;0.62;3.23;2.30;;;28.50;32.90;;;;;;2252006;61;20387;-58
2022/06/25 09:40:09;0.00;0.00;0.62;0.00;0.00;0.62;2.30;2.10;;;28.50;32.70;;;;;;2279586;58;20394;-60
2022/06/25 09:42:57;0.00;0.00;0.62;0.00;0.00;0.62;2.40;1.77;;;28.60;32.60;;;;;;2251918;61;20414;-55
2022/06/25 09:45:44;0.00;0.00;0.62;0.00;0.00;0.62;2.07;1.80;;;28.60;32.50;;;;;;2250699;61;20486;-58
2022/06/25 09:48:31;0.00;0.00;0.62;0.00;0.00;0.62;2.17;1.83;;;28.60;32.80;;;;;;2250628;61;20384;-57
2022/06/25 09:51:26;0.00;0.00;0.62;0.00;0.00;0.62;2.03;1.83;;;28.60;32.90;;;;;;2250865;61;20371;-54
2022/06/25 09:54:11;0.00;0.00;0.62;0.00;0.00;0.62;2.10;1.90;;;28.60;32.90;;;;;;2251297;61;20453;-60
2022/06/25 09:56:56;0.00;0.00;0.62;0.00;0.00;0.62;1.73;1.60;;;28.60;32.90;;;;;;2251491;61;20441;-57
2022/06/25 09:59:44;0.00;0.00;0.62;0.00;0.00;0.62;2.20;1.97;;;28.70;33.00;;;;;;2251695;61;20461;-58
2022/06/25 10:02:30;0.00;0.00;0.62;0.00;0.00;0.62;2.03;1.80;;;28.70;33.00;;;;;;2250204;61;20366;-57
2022/06/25 10:05:18;0.00;0.00;0.62;0.00;0.00;0.62;2.03;1.83;;;28.70;32.80;;;;;;2251645;61;21059;-58
2022/06/25 10:08:07;0.00;0.00;0.62;0.00;0.00;0.62;1.97;1.73;;;28.80;32.70;;;;;;2251321;61;20915;-57
2022/06/25 10:10:54;0.00;0.00;0.62;0.00;0.00;0.62;2.07;1.87;;;28.80;32.60;;;;;;2251215;61;20788;-54
2022/06/25 10:13:41;0.00;0.00;0.62;0.00;0.00;0.62;2.97;2.00;;;28.80;32.60;;;;;;2251758;61;20895;-53
2022/06/25 10:16:29;0.00;0.00;0.62;0.00;0.00;0.62;2.23;1.90;;;28.80;32.60;;;;;;2251208;61;20365;-51
2022/06/25 10:19:16;0.00;0.00;0.62;0.00;0.00;0.62;2.53;2.00;;;28.90;32.30;;;;;;2251848;61;20437;-59
2022/06/25 10:22:02;0.00;0.00;0.62;0.00;0.00;0.62;2.67;2.13;;;28.90;32.10;;;;;;2252012;61;20387;-58
2022/06/25 10:24:50;0.00;0.00;0.62;0.00;0.00;0.62;2.27;2.00;;;28.90;32.30;;;;;;2251142;61;20884;-58
2022/06/25 10:27:39;0.00;0.00;0.62;0.00;0.00;0.62;2.57;2.37;;;28.90;32.40;;;;;;2250532;61;20383;-58
2022/06/25 10:30:47;0.00;0.00;0.62;0.00;0.00;0.62;3.13;2.40;;;28.90;32.10;;;;;;2250375;61;20375;-58
2022/06/25 10:33:53;0.00;0.00;0.62;0.00;0.00;0.62;2.50;2.30;;;29.00;32.10;;;;;;2250191;61;20430;-59
2022/06/25 10:36:44;0.00;0.00;0.62;0.00;0.00;0.62;2.80;2.20;;;29.00;32.10;;;;;;2250445;61;20422;-58
2022/06/25 10:39:36;0.00;0.00;0.62;0.00;0.00;0.62;2.47;2.27;;;29.00;32.10;;;;;;2249969;61;20442;-59
2022/06/25 10:45:51;0.00;0.00;0.62;0.00;0.00;0.62;3.40;2.10;;;29.00;32.00;;;;;;2251226;61;20526;-56
2022/06/25 10:48:37;0.00;0.00;0.62;0.00;0.00;0.62;1.87;1.67;;;29.10;32.10;;;;;;2251465;61;20451;-59
2022/06/25 10:51:32;0.00;0.00;0.62;0.00;0.00;0.62;2.60;2.27;;;29.10;32.30;;;;;;2251675;61;21093;-59
2022/06/25 10:54:38;0.00;0.00;0.62;0.00;0.00;0.62;2.63;2.10;;;29.10;32.30;;;;;;2250859;61;20395;-59
2022/06/25 10:57:39;0.00;0.00;0.62;0.00;0.00;0.62;2.50;2.20;;;29.10;32.30;;;;;;2251509;61;20382;-56
2022/06/25 11:00:24;0.00;0.00;0.62;0.00;0.00;0.62;2.70;2.03;;;29.20;32.20;;;;;;2251414;61;20394;-54
2022/06/25 11:03:09;0.00;0.00;0.62;0.00;0.00;0.62;2.53;2.33;;;29.20;32.20;;;;;;2251137;61;20390;-55
2022/06/25 11:05:57;0.00;0.00;0.62;0.00;0.00;0.62;2.50;2.30;;;29.20;32.10;;;;;;2251765;61;20954;-54
2022/06/25 11:08:43;0.00;0.00;0.62;0.00;0.00;0.62;2.27;2.00;;;29.20;32.20;;;;;;2250800;61;20391;-52